sensor_id;sensor_type;location;lat;lon;timestamp;pressure;altitude;pressure_sealevel;temperature;humidity
70314;BME280;57725;47.526;18.986;2022-10-15T00:00:38;100012.78;;;13.13;91.58
70314;BME280;57725;47.526;18.986;2022-10-15T00:03:06;100014.56;;;13.13;91.58
70314;BME280;57725;47.526;18.986;2022-10-15T00:05:38;100006.78;;;13.11;91.73
70314;BME280;57725;47.526;18.986;2022-10-15T00:08:07;100006.78;;;13.11;91.78
70314;BME280;57725;47.526;18.986;2022-10-15T00:10:33;100011.09;;;13.12;91.63
70314;BME280;57725;47.526;18.986;2022-10-15T00:12:59;100009.41;;;13.11;91.44
70314;BME280;57725;47.526;18.986;2022-10-15T00:15:24;100012.03;;;13.11;91.57
70314;BME280;57725;47.526;18.986;2022-10-15T00:17:50;100010.31;;;13.10;91.61
70314;BME280;57725;47.526;18.986;2022-10-15T00:20:15;100016.41;;;13.11;91.63
70314;BME280;57725;47.526;18.986;2022-10-15T00:22:41;100012.94;;;13.10;91.57
70314;BME280;57725;47.526;18.986;2022-10-15T00:25:07;100008.69;;;13.07;91.90
70314;BME280;57725;47.526;18.986;2022-10-15T00:27:35;100009.47;;;13.10;91.62
70314;BME280;57725;47.526;18.986;2022-10-15T00:30:05;100010.41;;;13.09;91.49
70314;BME280;57725;47.526;18.986;2022-10-15T00:32:31;100013.88;;;13.09;91.64
70314;BME280;57725;47.526;18.986;2022-10-15T00:34:56;100008.69;;;13.07;91.67
70314;BME280;57725;47.526;18.986;2022-10-15T00:37:24;100012.16;;;13.08;91.60
70314;BME280;57725;47.526;18.986;2022-10-15T00:39:52;100001.66;;;13.08;91.47
70314;BME280;57725;47.526;18.986;2022-10-15T00:42:17;99996.50;;;13.06;91.75
70314;BME280;57725;47.526;18.986;2022-10-15T00:44:47;99999.97;;;13.07;91.53
70314;BME280;57725;47.526;18.986;2022-10-15T00:47:21;99989.47;;;13.07;91.70
70314;BME280;57725;47.526;18.986;2022-10-15T00:52:23;99991.25;;;13.06;91.72
70314;BME280;57725;47.526;18.986;2022-10-15T00:55:02;99984.28;;;13.05;91.49
70314;BME280;57725;47.526;18.986;2022-10-15T00:57:32;99982.59;;;13.04;91.60
70314;BME280;57725;47.526;18.986;2022-10-15T01:00:06;99986.91;;;13.05;91.70
70314;BME280;57725;47.526;18.986;2022-10-15T01:02:32;99981.75;;;13.04;91.65
70314;BME280;57725;47.526;18.986;2022-10-15T01:05:01;99983.44;;;13.05;91.58
70314;BME280;57725;47.526;18.986;2022-10-15T01:07:26;99978.19;;;13.05;91.58
70314;BME280;57725;47.526;18.986;2022-10-15T01:09:54;99972.09;;;13.04;91.59
70314;BME280;57725;47.526;18.986;2022-10-15T01:15:21;99977.44;;;13.03;91.67
70314;BME280;57725;47.526;18.986;2022-10-15T01:20:42;99977.53;;;13.01;91.48
70314;BME280;57725;47.526;18.986;2022-10-15T01:28:55;99970.50;;;13.02;91.58
70314;BME280;57725;47.526;18.986;2022-10-15T01:31:39;99975.81;;;13.00;91.71
70314;BME280;57725;47.526;18.986;2022-10-15T01:34:23;99974.91;;;13.01;91.60
70314;BME280;57725;47.526;18.986;2022-10-15T01:39:38;99969.72;;;13.00;91.57
70314;BME280;57725;47.526;18.986;2022-10-15T01:42:13;99977.59;;;13.00;91.63
70314;BME280;57725;47.526;18.986;2022-10-15T01:44:50;99967.09;;;13.00;91.66
70314;BME280;57725;47.526;18.986;2022-10-15T01:47:32;99969.81;;;12.98;91.74
70314;BME280;57725;47.526;18.986;2022-10-15T01:50:01;99967.19;;;12.98;91.65
70314;BME280;57725;47.526;18.986;2022-10-15T01:52:30;99965.47;;;12.97;91.71
70314;BME280;57725;47.526;18.986;2022-10-15T01:54:58;99968.94;;;12.98;91.53
70314;BME280;57725;47.526;18.986;2022-10-15T01:57:25;99965.47;;;12.97;91.45
70314;BME280;57725;47.526;18.986;2022-10-15T01:59:54;99973.28;;;12.99;91.63
70314;BME280;57725;47.526;18.986;2022-10-15T02:02:21;99967.19;;;12.98;91.62
70314;BME280;57725;47.526;18.986;2022-10-15T02:04:49;99962.00;;;12.97;91.79
70314;BME280;57725;47.526;18.986;2022-10-15T02:10:10;99972.50;;;12.97;91.59
70314;BME280;57725;47.526;18.986;2022-10-15T02:18:41;99969.94;;;12.95;91.67
70314;BME280;57725;47.526;18.986;2022-10-15T02:21:20;99970.88;;;12.94;91.63
70314;BME280;57725;47.526;18.986;2022-10-15T02:23:55;99974.34;;;12.95;91.62
70314;BME280;57725;47.526;18.986;2022-10-15T02:26:23;99970.88;;;12.94;91.68
70314;BME280;57725;47.526;18.986;2022-10-15T02:28:54;99964.78;;;12.94;91.52
70314;BME280;57725;47.526;18.986;2022-10-15T02:31:22;99963.84;;;12.95;91.73
70314;BME280;57725;47.526;18.986;2022-10-15T02:33:52;99957.75;;;12.94;91.70
70314;BME280;57725;47.526;18.986;2022-10-15T02:36:22;99964.78;;;12.94;91.63
70314;BME280;57725;47.526;18.986;2022-10-15T02:38:56;99963.94;;;12.93;91.62
70314;BME280;57725;47.526;18.986;2022-10-15T02:41:27;99961.41;;;12.92;91.73
70314;BME280;57725;47.526;18.986;2022-10-15T02:43:53;99956.16;;;12.92;91.57
70314;BME280;57725;47.526;18.986;2022-10-15T02:46:19;99959.59;;;12.92;91.63
70314;BME280;57725;47.526;18.986;2022-10-15T02:48:45;99967.47;;;12.92;91.70
70314;BME280;57725;47.526;18.986;2022-10-15T02:51:10;99957.94;;;12.91;91.71
70314;BME280;57725;47.526;18.986;2022-10-15T02:53:40;99955.31;;;12.91;91.53
70314;BME280;57725;47.526;18.986;2022-10-15T02:56:06;99956.16;;;12.92;91.65
70314;BME280;57725;47.526;18.986;2022-10-15T02:58:34;99952.69;;;12.91;91.62
70314;BME280;57725;47.526;18.986;2022-10-15T03:01:02;99949.22;;;12.91;91.51
70314;BME280;57725;47.526;18.986;2022-10-15T03:03:27;99955.38;;;12.90;91.66
70314;BME280;57725;47.526;18.986;2022-10-15T03:05:53;99957.09;;;12.91;91.54
70314;BME280;57725;47.526;18.986;2022-10-15T03:08:18;99949.22;;;12.91;91.48
70314;BME280;57725;47.526;18.986;2022-10-15T03:10:46;99949.28;;;12.89;91.37
70314;BME280;57725;47.526;18.986;2022-10-15T03:13:12;99950.13;;;12.90;91.56
70314;BME280;57725;47.526;18.986;2022-10-15T03:15:37;99960.63;;;12.90;91.35
70314;BME280;57725;47.526;18.986;2022-10-15T03:18:03;99952.75;;;12.90;91.52
70314;BME280;57725;47.526;18.986;2022-10-15T03:20:29;99948.44;;;12.89;91.49
70314;BME280;57725;47.526;18.986;2022-10-15T03:22:54;99939.72;;;12.88;91.61
70314;BME280;57725;47.526;18.986;2022-10-15T03:25:19;99940.72;;;12.86;91.68
70314;BME280;57725;47.526;18.986;2022-10-15T03:27:47;99940.63;;;12.87;91.56
70314;BME280;57725;47.526;18.986;2022-10-15T03:30:13;99953.75;;;12.87;91.58
70314;BME280;57725;47.526;18.986;2022-10-15T03:32:38;99953.75;;;12.87;91.47
70314;BME280;57725;47.526;18.986;2022-10-15T03:35:04;99952.91;;;12.87;91.55
70314;BME280;57725;47.526;18.986;2022-10-15T03:37:32;99963.41;;;12.87;91.56
70314;BME280;57725;47.526;18.986;2022-10-15T03:39:57;99962.56;;;12.86;91.58
70314;BME280;57725;47.526;18.986;2022-10-15T03:42:23;99959.06;;;12.86;91.49
70314;BME280;57725;47.526;18.986;2022-10-15T03:44:48;99959.06;;;12.86;91.50
70314;BME280;57725;47.526;18.986;2022-10-15T03:47:13;99965.25;;;12.85;91.62
70314;BME280;57725;47.526;18.986;2022-10-15T03:49:39;99966.09;;;12.85;91.42
70314;BME280;57725;47.526;18.986;2022-10-15T03:52:04;99957.38;;;12.85;91.39
70314;BME280;57725;47.526;18.986;2022-10-15T03:54:34;99954.81;;;12.83;91.45
70314;BME280;57725;47.526;18.986;2022-10-15T03:57:02;99966.16;;;12.84;91.43
70314;BME280;57725;47.526;18.986;2022-10-15T03:59:27;99967.94;;;12.83;91.51
70314;BME280;57725;47.526;18.986;2022-10-15T04:01:53;99950.50;;;12.82;91.56
70314;BME280;57725;47.526;18.986;2022-10-15T04:04:21;99953.13;;;12.82;91.43
70314;BME280;57725;47.526;18.986;2022-10-15T04:06:53;99953.97;;;12.83;91.47
70314;BME280;57725;47.526;18.986;2022-10-15T04:09:19;99944.50;;;12.80;91.45
70314;BME280;57725;47.526;18.986;2022-10-15T04:11:44;99943.56;;;12.81;91.55
70314;BME280;57725;47.526;18.986;2022-10-15T04:14:12;99944.41;;;12.82;91.44
70314;BME280;57725;47.526;18.986;2022-10-15T04:16:40;99940.09;;;12.81;91.38
70314;BME280;57725;47.526;18.986;2022-10-15T04:19:07;99940.94;;;12.81;91.63
70314;BME280;57725;47.526;18.986;2022-10-15T04:21:33;99943.56;;;12.81;91.62
70314;BME280;57725;47.526;18.986;2022-10-15T04:23:58;99948.06;;;12.79;91.44
70314;BME280;57725;47.526;18.986;2022-10-15T04:26:28;99949.75;;;12.80;91.48
70314;BME280;57725;47.526;18.986;2022-10-15T04:28:54;99945.44;;;12.79;91.39
70314;BME280;57725;47.526;18.986;2022-10-15T04:31:19;99948.06;;;12.79;91.46
70314;BME280;57725;47.526;18.986;2022-10-15T04:33:47;99950.75;;;12.78;91.59
70314;BME280;57725;47.526;18.986;2022-10-15T04:36:13;99962.09;;;12.78;91.27
70314;BME280;57725;47.526;18.986;2022-10-15T04:38:39;99957.69;;;12.79;91.50
70314;BME280;57725;47.526;18.986;2022-10-15T04:41:08;99955.16;;;12.77;91.50
70314;BME280;57725;47.526;18.986;2022-10-15T04:43:34;99964.78;;;12.77;91.44
70314;BME280;57725;47.526;18.986;2022-10-15T04:46:01;99957.78;;;12.77;91.51
70314;BME280;57725;47.526;18.986;2022-10-15T04:48:28;99963.03;;;12.77;91.45
70314;BME280;57725;47.526;18.986;2022-10-15T04:50:54;99963.94;;;12.76;91.51
70314;BME280;57725;47.526;18.986;2022-10-15T04:53:19;99961.31;;;12.76;91.36
70314;BME280;57725;47.526;18.986;2022-10-15T04:55:45;99964.88;;;12.75;91.50
70314;BME280;57725;47.526;18.986;2022-10-15T04:58:13;99957.91;;;12.74;91.58
70314;BME280;57725;47.526;18.986;2022-10-15T05:00:38;99959.69;;;12.74;91.35
70314;BME280;57725;47.526;18.986;2022-10-15T05:03:06;99962.31;;;12.74;91.46
70314;BME280;57725;47.526;18.986;2022-10-15T05:05:34;99960.63;;;12.73;91.36
70314;BME280;57725;47.526;18.986;2022-10-15T05:08:00;99955.38;;;12.73;91.50
70314;BME280;57725;47.526;18.986;2022-10-15T05:10:31;99955.38;;;12.73;91.33
70314;BME280;57725;47.526;18.986;2022-10-15T05:12:56;99960.63;;;12.73;91.43
70314;BME280;57725;47.526;18.986;2022-10-15T05:15:25;99961.53;;;12.72;91.33
70314;BME280;57725;47.526;18.986;2022-10-15T05:17:55;99970.34;;;12.70;91.31
70314;BME280;57725;47.526;18.986;2022-10-15T05:20:21;99973.81;;;12.71;91.51
70314;BME280;57725;47.526;18.986;2022-10-15T05:22:48;99967.72;;;12.70;91.39
70314;BME280;57725;47.526;18.986;2022-10-15T05:25:16;99962.47;;;12.70;91.30
70314;BME280;57725;47.526;18.986;2022-10-15T05:27:42;99967.72;;;12.70;91.33
70314;BME280;57725;47.526;18.986;2022-10-15T05:30:07;99965.09;;;12.70;91.42
70314;BME280;57725;47.526;18.986;2022-10-15T05:32:35;99962.56;;;12.69;91.42
70314;BME280;57725;47.526;18.986;2022-10-15T05:35:01;99959.94;;;12.69;91.38
70314;BME280;57725;47.526;18.986;2022-10-15T05:37:26;99952.06;;;12.69;91.45
70314;BME280;57725;47.526;18.986;2022-10-15T05:39:52;99953.00;;;12.68;91.40
70314;BME280;57725;47.526;18.986;2022-10-15T05:42:19;99951.22;;;12.68;91.37
70314;BME280;57725;47.526;18.986;2022-10-15T05:44:45;99953.00;;;12.68;91.22
70314;BME280;57725;47.526;18.986;2022-10-15T05:47:13;99954.84;;;12.66;91.40
70314;BME280;57725;47.526;18.986;2022-10-15T05:49:38;99967.03;;;12.67;91.51
70314;BME280;57725;47.526;18.986;2022-10-15T05:52:03;99957.47;;;12.66;91.50
70314;BME280;57725;47.526;18.986;2022-10-15T05:54:29;99961.78;;;12.67;91.37
70314;BME280;57725;47.526;18.986;2022-10-15T05:56:54;99961.78;;;12.67;91.32
70314;BME280;57725;47.526;18.986;2022-10-15T05:59:19;99957.47;;;12.66;91.55
70314;BME280;57725;47.526;18.986;2022-10-15T06:01:45;99967.03;;;12.67;91.44
70314;BME280;57725;47.526;18.986;2022-10-15T06:04:13;99970.56;;;12.66;91.52
70314;BME280;57725;47.526;18.986;2022-10-15T06:06:38;99964.47;;;12.65;91.46
70314;BME280;57725;47.526;18.986;2022-10-15T06:09:03;99970.66;;;12.64;91.44
70314;BME280;57725;47.526;18.986;2022-10-15T06:11:29;99975.91;;;12.64;91.50
70314;BME280;57725;47.526;18.986;2022-10-15T06:13:54;99980.28;;;12.64;91.51
70314;BME280;57725;47.526;18.986;2022-10-15T06:16:22;99980.28;;;12.64;91.39
70314;BME280;57725;47.526;18.986;2022-10-15T06:18:47;99983.84;;;12.63;91.46
70314;BME280;57725;47.526;18.986;2022-10-15T06:21:12;99990.78;;;12.64;91.57
70314;BME280;57725;47.526;18.986;2022-10-15T06:23:38;99997.81;;;12.63;91.42
70314;BME280;57725;47.526;18.986;2022-10-15T06:26:09;99995.19;;;12.63;91.50
70314;BME280;57725;47.526;18.986;2022-10-15T06:28:35;100000.41;;;12.63;91.51
70314;BME280;57725;47.526;18.986;2022-10-15T06:31:03;99996.09;;;12.62;91.51
70314;BME280;57725;47.526;18.986;2022-10-15T06:33:29;99992.63;;;12.62;91.61
70314;BME280;57725;47.526;18.986;2022-10-15T06:35:59;99994.31;;;12.63;91.69
70314;BME280;57725;47.526;18.986;2022-10-15T06:38:25;99996.09;;;12.62;91.64
70314;BME280;57725;47.526;18.986;2022-10-15T06:40:50;99989.16;;;12.61;91.67
70314;BME280;57725;47.526;18.986;2022-10-15T06:43:16;99997.88;;;12.62;91.68
70314;BME280;57725;47.526;18.986;2022-10-15T06:45:43;99996.16;;;12.61;91.53
70314;BME280;57725;47.526;18.986;2022-10-15T06:48:10;100000.56;;;12.60;91.69
70314;BME280;57725;47.526;18.986;2022-10-15T06:50:38;99998.78;;;12.61;91.58
70314;BME280;57725;47.526;18.986;2022-10-15T06:53:04;99999.72;;;12.60;91.82
70314;BME280;57725;47.526;18.986;2022-10-15T06:55:30;100001.41;;;12.61;91.67
70314;BME280;57725;47.526;18.986;2022-10-15T06:57:56;100003.19;;;12.60;91.69
70314;BME280;57725;47.526;18.986;2022-10-15T07:00:22;100004.88;;;12.61;91.71
70314;BME280;57725;47.526;18.986;2022-10-15T07:02:49;100003.25;;;12.59;91.66
70314;BME280;57725;47.526;18.986;2022-10-15T07:05:17;100013.69;;;12.60;91.72
70314;BME280;57725;47.526;18.986;2022-10-15T07:07:51;100018.91;;;12.60;91.77
70314;BME280;57725;47.526;18.986;2022-10-15T07:10:19;100012.91;;;12.58;91.85
70314;BME280;57725;47.526;18.986;2022-10-15T07:12:44;100018.06;;;12.60;91.73
70314;BME280;57725;47.526;18.986;2022-10-15T07:15:12;100014.59;;;12.59;91.86
70314;BME280;57725;47.526;18.986;2022-10-15T07:17:48;100012.81;;;12.60;91.82
70314;BME280;57725;47.526;18.986;2022-10-15T07:20:14;100010.22;;;12.60;91.82
70314;BME280;57725;47.526;18.986;2022-10-15T07:22:42;100016.38;;;12.59;91.74
70314;BME280;57725;47.526;18.986;2022-10-15T07:25:08;100010.28;;;12.58;91.77
70314;BME280;57725;47.526;18.986;2022-10-15T07:27:37;100010.22;;;12.60;91.75
70314;BME280;57725;47.526;18.986;2022-10-15T07:30:06;100011.13;;;12.59;91.78
70314;BME280;57725;47.526;18.986;2022-10-15T07:32:33;100006.72;;;12.59;91.90
70314;BME280;57725;47.526;18.986;2022-10-15T07:34:58;100002.41;;;12.58;91.94
70314;BME280;57725;47.526;18.986;2022-10-15T07:37:24;100003.25;;;12.59;91.81
70314;BME280;57725;47.526;18.986;2022-10-15T07:39:51;100004.09;;;12.59;91.95
70314;BME280;57725;47.526;18.986;2022-10-15T07:42:21;100005.88;;;12.59;91.76
70314;BME280;57725;47.526;18.986;2022-10-15T07:44:49;100002.41;;;12.58;91.76
70314;BME280;57725;47.526;18.986;2022-10-15T07:47:14;100004.09;;;12.59;91.97
70314;BME280;57725;47.526;18.986;2022-10-15T07:49:40;100008.50;;;12.59;91.89
70314;BME280;57725;47.526;18.986;2022-10-15T07:52:08;100009.34;;;12.59;91.91
70314;BME280;57725;47.526;18.986;2022-10-15T07:54:33;100004.19;;;12.58;91.87
70314;BME280;57725;47.526;18.986;2022-10-15T07:56:59;100011.97;;;12.59;92.07
70314;BME280;57725;47.526;18.986;2022-10-15T07:59:24;100013.84;;;12.57;91.88
70314;BME280;57725;47.526;18.986;2022-10-15T08:01:50;100019.00;;;12.59;91.57
70314;BME280;57725;47.526;18.986;2022-10-15T08:04:18;100023.31;;;12.60;91.94
70314;BME280;57725;47.526;18.986;2022-10-15T08:06:44;100019.84;;;12.59;91.74
70314;BME280;57725;47.526;18.986;2022-10-15T08:09:10;100020.75;;;12.58;91.77
70314;BME280;57725;47.526;18.986;2022-10-15T08:11:35;100027.72;;;12.59;91.83
70314;BME280;57725;47.526;18.986;2022-10-15T08:14:00;100027.72;;;12.59;91.88
70314;BME280;57725;47.526;18.986;2022-10-15T08:16:30;100035.59;;;12.59;91.92
70314;BME280;57725;47.526;18.986;2022-10-15T08:18:58;100032.97;;;12.59;91.86
70314;BME280;57725;47.526;18.986;2022-10-15T08:21:26;100035.59;;;12.59;91.92
70314;BME280;57725;47.526;18.986;2022-10-15T08:23:52;100031.19;;;12.60;92.00
70314;BME280;57725;47.526;18.986;2022-10-15T08:26:19;100029.47;;;12.59;91.88
70314;BME280;57725;47.526;18.986;2022-10-15T08:28:45;100028.63;;;12.58;91.91
70314;BME280;57725;47.526;18.986;2022-10-15T08:31:10;100031.19;;;12.60;91.83
70314;BME280;57725;47.526;18.986;2022-10-15T08:33:41;100035.59;;;12.59;91.90
70314;BME280;57725;47.526;18.986;2022-10-15T08:36:06;100032.97;;;12.59;91.86
70314;BME280;57725;47.526;18.986;2022-10-15T08:38:37;100033.03;;;12.58;92.12
70314;BME280;57725;47.526;18.986;2022-10-15T08:41:04;100030.34;;;12.59;91.94
70314;BME280;57725;47.526;18.986;2022-10-15T08:43:42;100033.81;;;12.60;91.82
70314;BME280;57725;47.526;18.986;2022-10-15T08:46:17;100030.34;;;12.59;91.91
70314;BME280;57725;47.526;18.986;2022-10-15T08:48:49;100031.25;;;12.58;92.15
70314;BME280;57725;47.526;18.986;2022-10-15T08:51:39;100032.97;;;12.59;92.10
70314;BME280;57725;47.526;18.986;2022-10-15T08:54:12;100039.97;;;12.59;92.01
70314;BME280;57725;47.526;18.986;2022-10-15T08:56:42;100039.97;;;12.59;91.91
70314;BME280;57725;47.526;18.986;2022-10-15T08:59:39;100037.28;;;12.60;92.07
70314;BME280;57725;47.526;18.986;2022-10-15T09:02:16;100033.81;;;12.60;92.10
70314;BME280;57725;47.526;18.986;2022-10-15T09:07:47;100029.41;;;12.60;91.95
70314;BME280;57725;47.526;18.986;2022-10-15T09:16:00;100045.09;;;12.62;92.09
70314;BME280;57725;47.526;18.986;2022-10-15T09:18:30;100047.78;;;12.60;92.15
70314;BME280;57725;47.526;18.986;2022-10-15T09:21:06;100055.56;;;12.62;92.07
70314;BME280;57725;47.526;18.986;2022-10-15T09:23:34;100056.50;;;12.61;92.19
70314;BME280;57725;47.526;18.986;2022-10-15T09:28:52;100053.81;;;12.62;92.20
70314;BME280;57725;47.526;18.986;2022-10-15T09:31:26;100055.50;;;12.63;92.02
70314;BME280;57725;47.526;18.986;2022-10-15T09:44:16;100046.78;;;12.63;92.19
70314;BME280;57725;47.526;18.986;2022-10-15T09:46:44;100059.75;;;12.66;92.13
70314;BME280;57725;47.526;18.986;2022-10-15T09:49:15;100064.16;;;12.65;91.97
70314;BME280;57725;47.526;18.986;2022-10-15T09:52:07;100062.38;;;12.66;92.04
70314;BME280;57725;47.526;18.986;2022-10-15T09:54:47;100057.97;;;12.66;92.02
70314;BME280;57725;47.526;18.986;2022-10-15T09:57:16;100052.81;;;12.65;92.22
70314;BME280;57725;47.526;18.986;2022-10-15T10:00:00;100047.50;;;12.66;92.20
70314;BME280;57725;47.526;18.986;2022-10-15T10:02:28;100047.50;;;12.66;92.25
70314;BME280;57725;47.526;18.986;2022-10-15T10:04:54;100045.72;;;12.67;92.24
70314;BME280;57725;47.526;18.986;2022-10-15T10:07:38;100043.94;;;12.67;92.28
70314;BME280;57725;47.526;18.986;2022-10-15T10:10:22;100037.00;;;12.66;92.07
70314;BME280;57725;47.526;18.986;2022-10-15T10:12:53;100035.16;;;12.68;92.27
70314;BME280;57725;47.526;18.986;2022-10-15T10:15:34;100032.59;;;12.67;92.09
70314;BME280;57725;47.526;18.986;2022-10-15T10:18:01;100043.03;;;12.68;92.10
70314;BME280;57725;47.526;18.986;2022-10-15T10:20:33;100036.00;;;12.69;92.15
70314;BME280;57725;47.526;18.986;2022-10-15T10:23:02;100042.06;;;12.69;92.13
70314;BME280;57725;47.526;18.986;2022-10-15T10:25:49;100049.94;;;12.69;92.11
70314;BME280;57725;47.526;18.986;2022-10-15T10:28:28;100047.25;;;12.71;92.17
70314;BME280;57725;47.526;18.986;2022-10-15T10:36:02;100030.66;;;12.70;92.15
70314;BME280;57725;47.526;18.986;2022-10-15T10:41:01;100015.78;;;12.71;92.25
70314;BME280;57725;47.526;18.986;2022-10-15T10:43:33;100016.56;;;12.73;92.35
70314;BME280;57725;47.526;18.986;2022-10-15T10:48:44;100007.84;;;12.73;92.18
70314;BME280;57725;47.526;18.986;2022-10-15T10:56:16;100013.00;;;12.74;92.20
70314;BME280;57725;47.526;18.986;2022-10-15T10:58:44;100003.44;;;12.73;92.37
70314;BME280;57725;47.526;18.986;2022-10-15T11:01:11;99997.28;;;12.74;92.35
70314;BME280;57725;47.526;18.986;2022-10-15T11:03:39;100009.41;;;12.77;92.23
70314;BME280;57725;47.526;18.986;2022-10-15T11:06:25;100000.66;;;12.76;92.35
70314;BME280;57725;47.526;18.986;2022-10-15T11:09:31;99999.75;;;12.77;92.12
70314;BME280;57725;47.526;18.986;2022-10-15T11:29:08;99972.53;;;12.80;92.25
70314;BME280;57725;47.526;18.986;2022-10-15T11:34:47;99958.44;;;12.81;92.42
70314;BME280;57725;47.526;18.986;2022-10-15T11:40:18;99953.13;;;12.82;92.39
70314;BME280;57725;47.526;18.986;2022-10-15T11:42:56;99961.00;;;12.82;92.22
70314;BME280;57725;47.526;18.986;2022-10-15T11:48:01;99953.13;;;12.82;92.43
70314;BME280;57725;47.526;18.986;2022-10-15T11:50:51;99949.59;;;12.83;92.21
70314;BME280;57725;47.526;18.986;2022-10-15T11:56:45;99948.66;;;12.84;92.39
70314;BME280;57725;47.526;18.986;2022-10-15T12:01:49;99959.06;;;12.86;92.31
70314;BME280;57725;47.526;18.986;2022-10-15T12:07:01;99949.34;;;12.88;92.30
70314;BME280;57725;47.526;18.986;2022-10-15T12:09:33;99938.00;;;12.87;92.40
70314;BME280;57725;47.526;18.986;2022-10-15T12:12:06;99942.34;;;12.88;92.39
70314;BME280;57725;47.526;18.986;2022-10-15T12:14:46;99940.56;;;12.89;92.32
70314;BME280;57725;47.526;18.986;2022-10-15T12:20:05;99940.50;;;12.90;92.22
70314;BME280;57725;47.526;18.986;2022-10-15T12:22:54;99939.56;;;12.91;92.29
70314;BME280;57725;47.526;18.986;2022-10-15T12:28:05;99938.59;;;12.92;92.38
70314;BME280;57725;47.526;18.986;2022-10-15T12:30:37;99929.81;;;12.93;92.28
70314;BME280;57725;47.526;18.986;2022-10-15T12:33:28;99941.16;;;12.94;92.23
70314;BME280;57725;47.526;18.986;2022-10-15T12:35:58;99936.75;;;12.94;92.38
70314;BME280;57725;47.526;18.986;2022-10-15T12:38:32;99932.38;;;12.95;92.29
70314;BME280;57725;47.526;18.986;2022-10-15T12:41:03;99932.28;;;12.96;92.05
70314;BME280;57725;47.526;18.986;2022-10-15T12:43:30;99937.53;;;12.96;92.45
70314;BME280;57725;47.526;18.986;2022-10-15T12:45:59;99932.22;;;12.98;92.33
70314;BME280;57725;47.526;18.986;2022-10-15T12:48:33;99919.94;;;12.98;92.39
70314;BME280;57725;47.526;18.986;2022-10-15T12:53:44;99917.25;;;13.00;92.18
70314;BME280;57725;47.526;18.986;2022-10-15T12:56:21;99914.63;;;13.00;92.28
70314;BME280;57725;47.526;18.986;2022-10-15T12:58:48;99911.91;;;13.01;92.15
70314;BME280;57725;47.526;18.986;2022-10-15T13:04:00;99914.47;;;13.03;92.19
70314;BME280;57725;47.526;18.986;2022-10-15T13:06:30;99920.56;;;13.03;92.17
70314;BME280;57725;47.526;18.986;2022-10-15T13:16:42;99923.94;;;13.05;92.32
70314;BME280;57725;47.526;18.986;2022-10-15T13:19:17;99923.00;;;13.06;92.33
70314;BME280;57725;47.526;18.986;2022-10-15T13:22:00;99923.84;;;13.07;92.24
70314;BME280;57725;47.526;18.986;2022-10-15T13:24:38;99919.47;;;13.07;92.46
70314;BME280;57725;47.526;18.986;2022-10-15T13:27:13;99920.22;;;13.10;92.30
70314;BME280;57725;47.526;18.986;2022-10-15T13:29:52;99918.44;;;13.10;92.13
70314;BME280;57725;47.526;18.986;2022-10-15T13:32:20;99916.69;;;13.11;92.08
70314;BME280;57725;47.526;18.986;2022-10-15T13:34:46;99916.69;;;13.11;92.38
70314;BME280;57725;47.526;18.986;2022-10-15T13:37:18;99921.84;;;13.12;92.26
70314;BME280;57725;47.526;18.986;2022-10-15T13:39:49;99925.31;;;13.13;92.23
70314;BME280;57725;47.526;18.986;2022-10-15T13:42:17;99919.16;;;13.14;92.15
70314;BME280;57725;47.526;18.986;2022-10-15T13:44:55;99927.94;;;13.13;92.30
70314;BME280;57725;47.526;18.986;2022-10-15T13:47:34;99932.28;;;13.14;92.21
70314;BME280;57725;47.526;18.986;2022-10-15T13:50:20;99932.22;;;13.15;92.32
70314;BME280;57725;47.526;18.986;2022-10-15T13:55:35;99924.25;;;13.17;92.29
70314;BME280;57725;47.526;18.986;2022-10-15T13:58:04;99923.31;;;13.18;92.28
70314;BME280;57725;47.526;18.986;2022-10-15T14:00:32;99921.56;;;13.18;92.11
70314;BME280;57725;47.526;18.986;2022-10-15T14:05:31;99917.16;;;13.19;92.23
70314;BME280;57725;47.526;18.986;2022-10-15T14:08:01;99922.31;;;13.20;92.11
70314;BME280;57725;47.526;18.986;2022-10-15T14:10:26;99922.31;;;13.20;92.15
70314;BME280;57725;47.526;18.986;2022-10-15T14:12:52;99917.91;;;13.21;92.19
70314;BME280;57725;47.526;18.986;2022-10-15T14:16:00;99919.63;;;13.22;92.11
70314;BME280;57725;47.526;18.986;2022-10-15T14:18:31;99917.00;;;13.22;92.02
70314;BME280;57725;47.526;18.986;2022-10-15T14:20:58;99913.53;;;13.21;92.32
70314;BME280;57725;47.526;18.986;2022-10-15T14:23:28;99919.63;;;13.22;92.15
70314;BME280;57725;47.526;18.986;2022-10-15T14:25:59;99918.63;;;13.24;92.11
70314;BME280;57725;47.526;18.986;2022-10-15T14:28:26;99917.69;;;13.25;92.16
70314;BME280;57725;47.526;18.986;2022-10-15T14:30:52;99908.88;;;13.26;92.12
70314;BME280;57725;47.526;18.986;2022-10-15T14:36:31;99909.81;;;13.25;92.18
70314;BME280;57725;47.526;18.986;2022-10-15T14:44:21;99904.38;;;13.28;92.19
70314;BME280;57725;47.526;18.986;2022-10-15T14:46:52;99902.59;;;13.29;92.06
70314;BME280;57725;47.526;18.986;2022-10-15T14:49:27;99905.16;;;13.30;92.17
70314;BME280;57725;47.526;18.986;2022-10-15T14:52:05;99906.00;;;13.31;92.08
70314;BME280;57725;47.526;18.986;2022-10-15T14:54:37;99906.00;;;13.31;92.15
70314;BME280;57725;47.526;18.986;2022-10-15T14:57:04;99911.16;;;13.32;92.14
70314;BME280;57725;47.526;18.986;2022-10-15T14:59:35;99911.16;;;13.32;92.26
70314;BME280;57725;47.526;18.986;2022-10-15T15:02:03;99912.88;;;13.33;92.17
70314;BME280;57725;47.526;18.986;2022-10-15T15:04:39;99914.56;;;13.34;92.07
70314;BME280;57725;47.526;18.986;2022-10-15T15:07:13;99923.28;;;13.35;92.09
70314;BME280;57725;47.526;18.986;2022-10-15T15:09:39;99917.19;;;13.34;92.15